Time;durP1;ratioP1;P1;durP2;ratioP2;P2;SDS_P1;SDS_P2;PMS_P1;PMS_P2;Temp;Humidity;BMP_temperature;BMP_pressure;BME280_temperature;BME280_humidity;BME280_pressure;Samples;Min_cycle;Max_cycle;Signal;HPM_P1;HPM_P2
2022/03/07 00:01:50;;;;;;;2.05;1.52;;;;;;;;;;5040274;28;20041;-62
2022/03/07 00:04:17;;;;;;;0.95;0.95;;;;;;;;;;5041593;28;20022;-62
2022/03/07 00:06:46;;;;;;;0.00;0.00;;;;;;;;;;5032537;28;20056;-61
2022/03/07 00:09:11;;;;;;;1.10;0.75;;;;;;;;;;5042616;28;20431;-62
2022/03/07 00:11:37;;;;;;;0.10;0.10;;;;;;;;;;5046029;28;20064;-63
2022/03/07 00:14:02;;;;;;;0.10;0.10;;;;;;;;;;5038371;28;20013;-63
2022/03/07 00:16:28;;;;;;;0.38;0.38;;;;;;;;;;5028172;28;20059;-62
2022/03/07 00:18:54;;;;;;;0.98;0.98;;;;;;;;;;5045807;28;20049;-63
2022/03/07 00:21:19;;;;;;;0.17;0.17;;;;;;;;;;5033082;28;20026;-62
2022/03/07 00:23:45;;;;;;;0.20;0.20;;;;;;;;;;5039575;28;20064;-63
2022/03/07 00:26:10;;;;;;;0.65;0.65;;;;;;;;;;5048378;28;20033;-62
2022/03/07 00:28:35;;;;;;;0.00;0.00;;;;;;;;;;5039352;28;20028;-61
2022/03/07 00:31:00;;;;;;;1.00;0.52;;;;;;;;;;5039548;28;20024;-61
2022/03/07 00:33:26;;;;;;;0.30;0.30;;;;;;;;;;5046638;28;20047;-61
2022/03/07 00:35:51;;;;;;;0.88;0.88;;;;;;;;;;5037122;28;20029;-61
2022/03/07 00:38:16;;;;;;;0.50;0.50;;;;;;;;;;5050281;28;20055;-61
2022/03/07 00:40:41;;;;;;;0.15;0.15;;;;;;;;;;5022202;28;20462;-61
2022/03/07 00:43:09;;;;;;;1.23;1.13;;;;;;;;;;5038180;28;20030;-61
2022/03/07 00:45:35;;;;;;;1.10;0.63;;;;;;;;;;5038503;28;20048;-62
2022/03/07 00:48:00;;;;;;;0.20;0.20;;;;;;;;;;5046058;28;20068;-62
2022/03/07 00:50:25;;;;;;;4.40;0.95;;;;;;;;;;5045528;28;20029;-59
2022/03/07 00:52:50;;;;;;;2.45;0.93;;;;;;;;;;5042673;28;20029;-59
2022/03/07 00:55:16;;;;;;;1.00;0.60;;;;;;;;;;5045149;28;20100;-59
2022/03/07 00:57:41;;;;;;;0.90;0.90;;;;;;;;;;5043900;28;20097;-58
2022/03/07 01:00:07;;;;;;;0.93;0.93;;;;;;;;;;5039800;28;20033;-60
2022/03/07 01:02:32;;;;;;;0.35;0.35;;;;;;;;;;5024482;28;20033;-60
2022/03/07 01:04:57;;;;;;;1.42;1.38;;;;;;;;;;5043212;28;20036;-59
2022/03/07 01:07:23;;;;;;;0.20;0.20;;;;;;;;;;5044933;28;20009;-60
2022/03/07 01:09:48;;;;;;;0.00;0.00;;;;;;;;;;5040378;28;20025;-59
2022/03/07 01:12:13;;;;;;;0.00;0.00;;;;;;;;;;5046781;28;20020;-59
2022/03/07 01:14:38;;;;;;;1.83;1.50;;;;;;;;;;5044437;28;20021;-60
2022/03/07 01:17:04;;;;;;;2.67;2.47;;;;;;;;;;5040115;28;20510;-59
2022/03/07 01:19:29;;;;;;;0.90;0.90;;;;;;;;;;5044464;28;20351;-60
2022/03/07 01:21:54;;;;;;;2.33;1.90;;;;;;;;;;5043857;28;20079;-61
2022/03/07 01:24:19;;;;;;;1.17;1.17;;;;;;;;;;5050234;28;20032;-60
2022/03/07 01:26:46;;;;;;;0.55;0.55;;;;;;;;;;5040746;28;20025;-60
2022/03/07 01:29:11;;;;;;;9.23;2.45;;;;;;;;;;5030628;28;20082;-60
2022/03/07 01:31:36;;;;;;;0.90;0.38;;;;;;;;;;5048937;28;20109;-60
2022/03/07 01:34:02;;;;;;;1.52;1.45;;;;;;;;;;5047019;28;20017;-59
2022/03/07 01:36:27;;;;;;;2.75;1.45;;;;;;;;;;5041655;28;20477;-60
2022/03/07 01:38:53;;;;;;;0.73;0.73;;;;;;;;;;5049869;28;20025;-60
2022/03/07 01:41:22;;;;;;;1.45;0.77;;;;;;;;;;5049137;28;20043;-60
2022/03/07 01:43:47;;;;;;;0.82;0.25;;;;;;;;;;5047692;28;20013;-60
2022/03/07 01:46:13;;;;;;;1.80;1.70;;;;;;;;;;5044041;28;20104;-61
2022/03/07 01:48:38;;;;;;;1.15;1.08;;;;;;;;;;5045531;28;20036;-60
2022/03/07 01:51:03;;;;;;;2.78;1.45;;;;;;;;;;5040230;28;20018;-60
2022/03/07 01:53:29;;;;;;;1.45;0.47;;;;;;;;;;5043304;28;20013;-61
2022/03/07 01:55:54;;;;;;;0.93;0.47;;;;;;;;;;5041726;28;20018;-60
2022/03/07 01:58:20;;;;;;;0.88;0.88;;;;;;;;;;5043088;28;20029;-58
2022/03/07 02:00:47;;;;;;;1.85;1.75;;;;;;;;;;5041968;28;20430;-59
2022/03/07 02:03:12;;;;;;;3.67;3.22;;;;;;;;;;5039300;28;20382;-58
2022/03/07 02:05:37;;;;;;;1.25;1.20;;;;;;;;;;5043164;28;20021;-58
2022/03/07 02:08:03;;;;;;;3.30;1.45;;;;;;;;;;5046940;28;20032;-58
2022/03/07 02:10:28;;;;;;;1.45;1.35;;;;;;;;;;5037213;28;20032;-60
2022/03/07 02:12:54;;;;;;;1.50;1.45;;;;;;;;;;5041509;28;20037;-59
2022/03/07 02:15:19;;;;;;;4.95;1.35;;;;;;;;;;5038698;28;20390;-58
2022/03/07 02:17:45;;;;;;;5.03;2.80;;;;;;;;;;5020098;28;20072;-60
2022/03/07 02:20:11;;;;;;;3.88;3.30;;;;;;;;;;5039199;28;20791;-60
2022/03/07 02:22:36;;;;;;;1.80;1.42;;;;;;;;;;5039078;28;20097;-59
2022/03/07 02:25:02;;;;;;;1.55;1.40;;;;;;;;;;5044489;28;20070;-60
2022/03/07 02:27:28;;;;;;;1.48;1.45;;;;;;;;;;5040972;28;20021;-60
2022/03/07 02:29:53;;;;;;;1.20;1.10;;;;;;;;;;5037441;28;20076;-61
2022/03/07 02:32:20;;;;;;;1.10;0.77;;;;;;;;;;5043811;28;20013;-62
2022/03/07 02:34:46;;;;;;;1.77;1.65;;;;;;;;;;5038005;28;20125;-61
2022/03/07 02:37:11;;;;;;;0.95;0.68;;;;;;;;;;5046845;28;20517;-59
2022/03/07 02:39:36;;;;;;;0.65;0.57;;;;;;;;;;5045261;28;20431;-60
2022/03/07 02:42:01;;;;;;;0.77;0.77;;;;;;;;;;5043292;28;20095;-59
2022/03/07 02:44:27;;;;;;;0.00;0.00;;;;;;;;;;5039739;28;20104;-59
2022/03/07 02:46:52;;;;;;;0.28;0.28;;;;;;;;;;5037020;28;20025;-59
2022/03/07 02:49:17;;;;;;;1.20;1.13;;;;;;;;;;5040208;28;20041;-58
2022/03/07 02:51:42;;;;;;;0.40;0.40;;;;;;;;;;5034983;28;20024;-59
2022/03/07 02:54:07;;;;;;;0.03;0.03;;;;;;;;;;5035176;28;20025;-60
2022/03/07 02:56:33;;;;;;;3.40;2.90;;;;;;;;;;5033436;28;20029;-59
2022/03/07 02:58:58;;;;;;;0.77;0.77;;;;;;;;;;5037108;28;20024;-60
2022/03/07 03:01:23;;;;;;;0.40;0.40;;;;;;;;;;5038286;28;20104;-60
2022/03/07 03:03:49;;;;;;;0.73;0.73;;;;;;;;;;5035934;28;20029;-60
2022/03/07 03:06:14;;;;;;;0.45;0.45;;;;;;;;;;5039786;28;20032;-60
2022/03/07 03:08:39;;;;;;;1.10;1.10;;;;;;;;;;5035119;28;20720;-60
2022/03/07 03:11:04;;;;;;;2.85;2.08;;;;;;;;;;5039243;28;20032;-61
2022/03/07 03:13:30;;;;;;;2.80;2.15;;;;;;;;;;5043464;28;20087;-59
2022/03/07 03:15:55;;;;;;;2.22;2.13;;;;;;;;;;5040669;28;20018;-59
2022/03/07 03:18:21;;;;;;;1.15;1.05;;;;;;;;;;5036193;28;20505;-60
2022/03/07 03:20:47;;;;;;;3.60;2.95;;;;;;;;;;5039135;28;20486;-61
2022/03/07 03:23:13;;;;;;;1.08;1.08;;;;;;;;;;5037618;28;20056;-61
2022/03/07 03:25:38;;;;;;;1.65;1.60;;;;;;;;;;5037739;28;20021;-60
2022/03/07 03:28:04;;;;;;;3.40;1.17;;;;;;;;;;5042172;28;20548;-59
2022/03/07 03:30:29;;;;;;;1.67;1.58;;;;;;;;;;5045723;28;20476;-60
2022/03/07 03:32:55;;;;;;;0.65;0.65;;;;;;;;;;5036390;28;20097;-59
2022/03/07 03:35:20;;;;;;;0.00;0.00;;;;;;;;;;5039824;28;20424;-58
2022/03/07 03:37:45;;;;;;;2.63;2.40;;;;;;;;;;5045343;28;20036;-60
2022/03/07 03:40:11;;;;;;;0.52;0.52;;;;;;;;;;5038722;28;20478;-59
2022/03/07 03:42:37;;;;;;;1.05;1.02;;;;;;;;;;5040710;28;20097;-56
2022/03/07 03:45:05;;;;;;;5.85;3.95;;;;;;;;;;5033649;28;20022;-58
2022/03/07 03:47:31;;;;;;;0.95;0.95;;;;;;;;;;5038492;28;20033;-59
2022/03/07 03:49:56;;;;;;;1.58;1.48;;;;;;;;;;5036395;28;20075;-59
2022/03/07 03:52:22;;;;;;;2.40;1.90;;;;;;;;;;5033583;28;20140;-58
2022/03/07 03:54:47;;;;;;;1.85;1.30;;;;;;;;;;5029329;28;20059;-58
2022/03/07 03:57:12;;;;;;;0.57;0.57;;;;;;;;;;5031387;28;20035;-58
2022/03/07 03:59:38;;;;;;;0.00;0.00;;;;;;;;;;5037751;28;20078;-57
2022/03/07 04:02:04;;;;;;;1.05;0.93;;;;;;;;;;5034487;28;20013;-58
2022/03/07 04:04:29;;;;;;;3.53;2.03;;;;;;;;;;5032809;28;20527;-58
2022/03/07 04:06:54;;;;;;;1.25;1.25;;;;;;;;;;5032387;28;20025;-58
2022/03/07 04:09:21;;;;;;;3.30;2.75;;;;;;;;;;5034666;28;20013;-59
2022/03/07 04:11:46;;;;;;;2.15;2.05;;;;;;;;;;5037092;28;20474;-60
2022/03/07 04:14:12;;;;;;;1.30;1.13;;;;;;;;;;5029735;28;20024;-59
2022/03/07 04:16:38;;;;;;;2.22;1.20;;;;;;;;;;5032734;28;20033;-58
2022/03/07 04:19:04;;;;;;;1.40;1.40;;;;;;;;;;5039788;28;20045;-58
2022/03/07 04:21:30;;;;;;;1.85;1.75;;;;;;;;;;5032698;28;20371;-58
2022/03/07 04:23:56;;;;;;;4.65;3.75;;;;;;;;;;5017708;28;20442;-57
2022/03/07 04:26:22;;;;;;;2.53;2.35;;;;;;;;;;5037363;28;20058;-59
2022/03/07 04:28:47;;;;;;;1.13;1.10;;;;;;;;;;5034941;28;20561;-59
2022/03/07 04:31:12;;;;;;;0.08;0.08;;;;;;;;;;5033907;28;20022;-58
2022/03/07 04:33:38;;;;;;;6.78;5.30;;;;;;;;;;5040048;28;20020;-61
2022/03/07 04:36:03;;;;;;;2.63;2.47;;;;;;;;;;5040716;28;20509;-60
2022/03/07 04:38:28;;;;;;;3.10;2.83;;;;;;;;;;5045305;28;20117;-60
2022/03/07 04:40:54;;;;;;;1.55;1.45;;;;;;;;;;5038935;28;20487;-59
2022/03/07 04:43:19;;;;;;;2.08;1.98;;;;;;;;;;5046567;28;20027;-59
2022/03/07 04:45:44;;;;;;;2.97;2.72;;;;;;;;;;5042309;28;20065;-58
2022/03/07 04:48:10;;;;;;;0.82;0.82;;;;;;;;;;5042758;28;20030;-60
2022/03/07 04:50:35;;;;;;;0.75;0.75;;;;;;;;;;5038267;28;20013;-60
2022/03/07 04:53:00;;;;;;;1.23;1.00;;;;;;;;;;5042302;28;20025;-61
2022/03/07 04:55:25;;;;;;;1.85;1.70;;;;;;;;;;5038320;28;20014;-61
2022/03/07 04:57:51;;;;;;;1.10;0.98;;;;;;;;;;5038348;28;20033;-60
2022/03/07 05:00:16;;;;;;;3.40;2.60;;;;;;;;;;5041756;28;20030;-61
2022/03/07 05:02:42;;;;;;;4.25;3.67;;;;;;;;;;5033428;28;20029;-60
2022/03/07 05:05:08;;;;;;;1.40;0.88;;;;;;;;;;5034532;28;20071;-60
2022/03/07 05:07:33;;;;;;;1.45;1.40;;;;;;;;;;5040743;28;20045;-61
2022/03/07 05:09:58;;;;;;;3.28;3.00;;;;;;;;;;5041895;28;20053;-60
2022/03/07 05:12:23;;;;;;;1.85;1.75;;;;;;;;;;5036333;28;20038;-59
2022/03/07 05:14:48;;;;;;;3.83;3.50;;;;;;;;;;5039365;28;20025;-59
2022/03/07 05:17:14;;;;;;;2.50;2.30;;;;;;;;;;5035055;28;20021;-58
2022/03/07 05:19:39;;;;;;;1.67;1.63;;;;;;;;;;5036386;28;20045;-59
2022/03/07 05:22:04;;;;;;;3.40;3.00;;;;;;;;;;5037355;28;20025;-60
2022/03/07 05:24:29;;;;;;;3.42;3.20;;;;;;;;;;5035444;28;20346;-59
2022/03/07 05:26:54;;;;;;;2.42;2.33;;;;;;;;;;5037979;28;20099;-59
2022/03/07 05:29:20;;;;;;;3.05;2.85;;;;;;;;;;5040756;28;20025;-59
2022/03/07 05:31:45;;;;;;;1.40;0.50;;;;;;;;;;5034194;28;20025;-59
2022/03/07 05:34:10;;;;;;;1.90;1.80;;;;;;;;;;5037014;28;20029;-60
2022/03/07 05:36:36;;;;;;;1.05;1.05;;;;;;;;;;5037572;28;20021;-59
2022/03/07 05:39:02;;;;;;;1.40;1.30;;;;;;;;;;5041143;28;20091;-59
2022/03/07 05:41:27;;;;;;;0.75;0.75;;;;;;;;;;5038743;28;20052;-60
2022/03/07 05:43:52;;;;;;;0.20;0.20;;;;;;;;;;5037391;28;20034;-60
2022/03/07 05:46:18;;;;;;;1.75;0.60;;;;;;;;;;5029714;28;20104;-61
2022/03/07 05:48:43;;;;;;;0.10;0.10;;;;;;;;;;5030571;28;20027;-59
2022/03/07 05:51:08;;;;;;;0.40;0.40;;;;;;;;;;5031099;28;20010;-60
2022/03/07 05:53:33;;;;;;;2.38;1.40;;;;;;;;;;5031391;28;20030;-59
2022/03/07 05:55:59;;;;;;;1.35;1.25;;;;;;;;;;5032183;28;20056;-60
2022/03/07 05:58:24;;;;;;;0.00;0.00;;;;;;;;;;5039267;28;20097;-58
2022/03/07 06:00:49;;;;;;;2.08;0.43;;;;;;;;;;5033470;28;20435;-59
2022/03/07 06:03:14;;;;;;;0.57;0.57;;;;;;;;;;5034199;28;20018;-59
2022/03/07 06:05:40;;;;;;;0.00;0.00;;;;;;;;;;5036063;28;20414;-60
2022/03/07 06:08:06;;;;;;;0.45;0.45;;;;;;;;;;5038878;28;20056;-59
2022/03/07 06:10:31;;;;;;;0.00;0.00;;;;;;;;;;5040507;28;20364;-58
2022/03/07 06:12:57;;;;;;;0.00;0.00;;;;;;;;;;5030952;28;20072;-58
2022/03/07 06:15:22;;;;;;;0.00;0.00;;;;;;;;;;5031489;28;20022;-60
2022/03/07 06:17:58;;;;;;;0.25;0.25;;;;;;;;;;5034214;28;20051;-58
2022/03/07 06:20:24;;;;;;;0.10;0.10;;;;;;;;;;5031256;28;20038;-59
2022/03/07 06:22:50;;;;;;;0.00;0.00;;;;;;;;;;5035128;28;20028;-58
2022/03/07 06:25:15;;;;;;;0.00;0.00;;;;;;;;;;5041225;28;20109;-59
2022/03/07 06:27:41;;;;;;;0.00;0.00;;;;;;;;;;5029688;28;20116;-59
2022/03/07 06:30:08;;;;;;;0.00;0.00;;;;;;;;;;5029993;28;20021;-58
2022/03/07 06:32:33;;;;;;;0.00;0.00;;;;;;;;;;5040079;28;20025;-59
2022/03/07 06:34:58;;;;;;;0.00;0.00;;;;;;;;;;5034407;28;20020;-60
2022/03/07 06:37:24;;;;;;;0.20;0.20;;;;;;;;;;5035824;28;20094;-59
2022/03/07 06:39:49;;;;;;;0.05;0.05;;;;;;;;;;5040783;28;20529;-60
2022/03/07 06:42:14;;;;;;;0.00;0.00;;;;;;;;;;5035156;28;20079;-59
2022/03/07 06:44:40;;;;;;;0.10;0.10;;;;;;;;;;5036630;28;21474;-60
2022/03/07 06:47:06;;;;;;;1.55;1.10;;;;;;;;;;5031375;28;20014;-59
2022/03/07 06:49:32;;;;;;;0.82;0.82;;;;;;;;;;5029613;28;20026;-60
2022/03/07 06:51:57;;;;;;;0.55;0.55;;;;;;;;;;5037090;28;20474;-60
2022/03/07 06:54:22;;;;;;;0.00;0.00;;;;;;;;;;5031290;28;20486;-60
2022/03/07 06:56:48;;;;;;;1.33;0.98;;;;;;;;;;5035835;28;20044;-59
2022/03/07 06:59:13;;;;;;;0.00;0.00;;;;;;;;;;5037654;28;20467;-60
2022/03/07 07:01:38;;;;;;;0.08;0.08;;;;;;;;;;5032352;28;20029;-60
2022/03/07 07:04:03;;;;;;;0.10;0.10;;;;;;;;;;5031914;28;20022;-59
2022/03/07 07:06:28;;;;;;;0.35;0.35;;;;;;;;;;5038305;28;20021;-59
2022/03/07 07:08:54;;;;;;;0.00;0.00;;;;;;;;;;5033095;28;20491;-60
2022/03/07 07:11:19;;;;;;;0.52;0.52;;;;;;;;;;5035967;28;20021;-60
2022/03/07 07:13:44;;;;;;;2.83;0.10;;;;;;;;;;5031569;28;20032;-59
2022/03/07 07:16:09;;;;;;;0.20;0.20;;;;;;;;;;5031466;28;20619;-60
2022/03/07 07:18:35;;;;;;;1.02;1.00;;;;;;;;;;5037089;28;20049;-60
2022/03/07 07:21:00;;;;;;;0.57;0.57;;;;;;;;;;5033877;28;20096;-59
2022/03/07 07:23:25;;;;;;;0.00;0.00;;;;;;;;;;5040496;28;20083;-60
2022/03/07 07:25:50;;;;;;;0.93;0.93;;;;;;;;;;5035970;28;20029;-59
2022/03/07 07:28:15;;;;;;;0.75;0.75;;;;;;;;;;5040043;28;20087;-59
2022/03/07 07:30:41;;;;;;;0.60;0.60;;;;;;;;;;5034920;28;20096;-60
2022/03/07 07:33:06;;;;;;;0.77;0.77;;;;;;;;;;5034492;28;20013;-60
2022/03/07 07:35:34;;;;;;;0.00;0.00;;;;;;;;;;5033651;28;20537;-58
2022/03/07 07:37:59;;;;;;;3.13;2.63;;;;;;;;;;5038296;28;20056;-59
2022/03/07 07:40:24;;;;;;;1.38;1.38;;;;;;;;;;5047716;28;20045;-57
2022/03/07 07:42:50;;;;;;;0.38;0.38;;;;;;;;;;5030627;28;20492;-58
2022/03/07 07:45:15;;;;;;;0.85;0.50;;;;;;;;;;5035904;28;20014;-58
2022/03/07 07:47:40;;;;;;;0.47;0.47;;;;;;;;;;5040842;28;20021;-58
2022/03/07 07:50:06;;;;;;;0.10;0.10;;;;;;;;;;5034842;28;20051;-58
2022/03/07 07:52:31;;;;;;;0.00;0.00;;;;;;;;;;5040672;28;20103;-59
2022/03/07 07:54:56;;;;;;;2.50;2.35;;;;;;;;;;5029056;28;20025;-60
2022/03/07 07:57:21;;;;;;;0.20;0.20;;;;;;;;;;5028598;28;20394;-59
2022/03/07 07:59:47;;;;;;;0.38;0.38;;;;;;;;;;5033348;28;20048;-60
2022/03/07 08:02:12;;;;;;;0.10;0.10;;;;;;;;;;5039637;28;20028;-61
2022/03/07 08:04:37;;;;;;;0.00;0.00;;;;;;;;;;5036295;28;20069;-59
2022/03/07 08:07:03;;;;;;;1.52;1.50;;;;;;;;;;5032792;28;20022;-60
2022/03/07 08:09:28;;;;;;;2.45;2.08;;;;;;;;;;5033625;28;20052;-59
2022/03/07 08:11:53;;;;;;;0.70;0.70;;;;;;;;;;5029474;28;20373;-60
2022/03/07 08:14:19;;;;;;;1.05;1.05;;;;;;;;;;5032039;28;20463;-61
2022/03/07 08:16:44;;;;;;;0.90;0.90;;;;;;;;;;5033492;28;20028;-61
2022/03/07 08:19:09;;;;;;;0.10;0.10;;;;;;;;;;5033462;28;20073;-60
2022/03/07 08:21:35;;;;;;;0.90;0.90;;;;;;;;;;5036898;28;20025;-65
2022/03/07 08:24:00;;;;;;;0.70;0.70;;;;;;;;;;5031708;28;20047;-59
2022/03/07 08:26:26;;;;;;;3.45;1.60;;;;;;;;;;5039935;28;20441;-59
2022/03/07 08:28:51;;;;;;;2.85;2.65;;;;;;;;;;5035568;28;20031;-61
2022/03/07 08:31:17;;;;;;;1.88;1.77;;;;;;;;;;5035546;28;20028;-60
2022/03/07 08:33:42;;;;;;;0.38;0.38;;;;;;;;;;5035155;28;20402;-60
2022/03/07 08:36:08;;;;;;;0.82;0.82;;;;;;;;;;5040655;28;20029;-60
2022/03/07 08:38:34;;;;;;;2.45;2.25;;;;;;;;;;5040153;28;20025;-60
2022/03/07 08:41:00;;;;;;;0.95;0.80;;;;;;;;;;5039911;28;20026;-61
2022/03/07 08:43:25;;;;;;;1.17;1.08;;;;;;;;;;5039779;28;20028;-60
2022/03/07 08:45:50;;;;;;;1.55;1.02;;;;;;;;;;5044204;28;20474;-60
2022/03/07 08:48:15;;;;;;;0.10;0.10;;;;;;;;;;5037604;28;20026;-60
2022/03/07 08:50:41;;;;;;;1.65;1.55;;;;;;;;;;5039907;28;20029;-60
2022/03/07 08:53:06;;;;;;;1.20;0.90;;;;;;;;;;5034175;28;20033;-60
2022/03/07 08:55:31;;;;;;;1.42;1.02;;;;;;;;;;5042404;28;20052;-60
2022/03/07 08:57:56;;;;;;;0.80;0.80;;;;;;;;;;5042948;28;20462;-59
2022/03/07 09:00:22;;;;;;;1.77;1.67;;;;;;;;;;5035222;28;20014;-61
2022/03/07 09:02:47;;;;;;;1.90;1.73;;;;;;;;;;5031448;28;20032;-63
2022/03/07 09:05:13;;;;;;;0.85;0.82;;;;;;;;;;5034334;28;20043;-62
2022/03/07 09:07:38;;;;;;;1.35;1.23;;;;;;;;;;5022635;28;20017;-62
2022/03/07 09:10:04;;;;;;;0.47;0.47;;;;;;;;;;5044873;28;20028;-62
2022/03/07 09:12:29;;;;;;;2.28;2.17;;;;;;;;;;5043405;28;20096;-64
2022/03/07 09:14:58;;;;;;;1.77;1.67;;;;;;;;;;5045653;28;20417;-64
2022/03/07 09:17:24;;;;;;;2.10;1.88;;;;;;;;;;5042597;28;20017;-63
2022/03/07 09:19:49;;;;;;;4.57;4.28;;;;;;;;;;5041237;28;20564;-63
2022/03/07 09:22:15;;;;;;;0.47;0.47;;;;;;;;;;5040968;28;20130;-63
2022/03/07 09:24:40;;;;;;;1.52;1.45;;;;;;;;;;5044891;28;20344;-62
2022/03/07 09:27:05;;;;;;;2.20;2.03;;;;;;;;;;5046890;28;20057;-63
2022/03/07 09:29:30;;;;;;;1.77;1.65;;;;;;;;;;5040788;28;20021;-62
2022/03/07 09:31:56;;;;;;;0.73;0.73;;;;;;;;;;5037337;28;20140;-62
2022/03/07 09:34:21;;;;;;;1.25;1.17;;;;;;;;;;5034559;28;20116;-61
2022/03/07 09:36:46;;;;;;;2.13;2.03;;;;;;;;;;5039394;28;20026;-62
2022/03/07 09:39:12;;;;;;;0.98;0.93;;;;;;;;;;5045199;28;20090;-63
2022/03/07 09:41:39;;;;;;;0.45;0.45;;;;;;;;;;5042025;28;20214;-63
2022/03/07 09:44:05;;;;;;;2.75;2.60;;;;;;;;;;5043884;28;20028;-63
2022/03/07 09:46:30;;;;;;;2.88;2.78;;;;;;;;;;5043786;28;20033;-63
2022/03/07 09:48:55;;;;;;;2.53;2.33;;;;;;;;;;5036937;28;20112;-63
2022/03/07 09:51:22;;;;;;;2.78;2.42;;;;;;;;;;5043171;28;20078;-62
2022/03/07 09:53:47;;;;;;;3.22;3.00;;;;;;;;;;5040411;28;20035;-63
2022/03/07 09:56:12;;;;;;;1.35;1.23;;;;;;;;;;5045675;28;20112;-63
2022/03/07 09:58:37;;;;;;;2.75;2.53;;;;;;;;;;5044474;28;20032;-63
2022/03/07 10:01:13;;;;;;;1.85;1.27;;;;;;;;;;5042013;28;20022;-61
2022/03/07 10:03:39;;;;;;;0.17;0.17;;;;;;;;;;5042113;28;20445;-62
2022/03/07 10:06:14;;;;;;;2.20;2.10;;;;;;;;;;5040349;28;20104;-62
2022/03/07 10:08:50;;;;;;;2.33;2.20;;;;;;;;;;5043562;28;20032;-61
2022/03/07 10:11:15;;;;;;;1.15;1.10;;;;;;;;;;5034791;28;20453;-62
2022/03/07 10:13:48;;;;;;;1.13;1.13;;;;;;;;;;5041960;28;20041;-62
2022/03/07 10:16:13;;;;;;;4.30;0.98;;;;;;;;;;5046542;28;20021;-63
2022/03/07 10:18:47;;;;;;;1.80;1.70;;;;;;;;;;5043424;28;20128;-63
2022/03/07 10:21:20;;;;;;;0.47;0.45;;;;;;;;;;5038128;28;20025;-62
2022/03/07 10:23:49;;;;;;;0.95;0.95;;;;;;;;;;5042832;28;20014;-62
2022/03/07 10:26:14;;;;;;;;;;;;;;;;;;5036032;28;20065;-62
2022/03/07 10:28:41;;;;;;;2.10;1.95;;;;;;;;;;5042784;28;20232;-62
2022/03/07 10:31:16;;;;;;;2.45;1.40;;;;;;;;;;5024700;28;20096;-62
2022/03/07 10:33:44;;;;;;;0.20;0.20;;;;;;;;;;5043734;28;20335;-63
2022/03/07 10:36:09;;;;;;;1.67;1.60;;;;;;;;;;5035394;28;20028;-59
2022/03/07 10:38:35;;;;;;;2.10;2.00;;;;;;;;;;5019260;28;20470;-60
2022/03/07 10:41:00;;;;;;;2.15;2.05;;;;;;;;;;5042406;28;20022;-59
2022/03/07 10:43:27;;;;;;;0.00;0.00;;;;;;;;;;5037342;28;20109;-58
2022/03/07 10:45:54;;;;;;;0.82;0.80;;;;;;;;;;5024577;28;20160;-59
2022/03/07 10:48:20;;;;;;;0.98;0.98;;;;;;;;;;5045333;28;20078;-59
2022/03/07 10:50:46;;;;;;;3.33;3.05;;;;;;;;;;5033398;28;20026;-60
2022/03/07 10:53:12;;;;;;;1.40;1.30;;;;;;;;;;5036111;28;20094;-60
2022/03/07 10:55:37;;;;;;;2.88;2.63;;;;;;;;;;5034133;28;20064;-60
2022/03/07 10:58:05;;;;;;;1.80;1.70;;;;;;;;;;5035168;28;20013;-59
2022/03/07 11:00:31;;;;;;;2.35;2.25;;;;;;;;;;5044292;28;20032;-59
2022/03/07 11:02:56;;;;;;;2.28;2.00;;;;;;;;;;5039665;28;20025;-59
2022/03/07 11:05:21;;;;;;;3.03;1.42;;;;;;;;;;5044068;28;20017;-59
2022/03/07 11:07:49;;;;;;;6.75;2.03;;;;;;;;;;5042633;28;20024;-59
2022/03/07 11:10:15;;;;;;;2.22;2.13;;;;;;;;;;5040275;28;20032;-59
2022/03/07 11:12:41;;;;;;;2.72;1.67;;;;;;;;;;5039895;28;20033;-60
2022/03/07 11:15:09;;;;;;;1.45;1.38;;;;;;;;;;5045227;28;20032;-61
2022/03/07 11:17:36;;;;;;;1.67;1.20;;;;;;;;;;5038858;28;20524;-61
2022/03/07 11:20:02;;;;;;;2.65;2.40;;;;;;;;;;5037593;28;20060;-61
2022/03/07 11:22:27;;;;;;;1.95;1.67;;;;;;;;;;5046146;28;20373;-60
2022/03/07 11:24:53;;;;;;;1.65;1.58;;;;;;;;;;5037364;28;20030;-60
2022/03/07 11:27:18;;;;;;;9.23;3.97;;;;;;;;;;5039008;28;20025;-59
2022/03/07 11:29:44;;;;;;;2.88;2.65;;;;;;;;;;5040243;28;20478;-59
2022/03/07 11:32:10;;;;;;;5.50;2.80;;;;;;;;;;5039635;28;20009;-59
2022/03/07 11:34:36;;;;;;;2.85;2.65;;;;;;;;;;5033733;28;20021;-61
2022/03/07 11:37:02;;;;;;;3.60;1.88;;;;;;;;;;5034281;28;20171;-59
2022/03/07 11:39:31;;;;;;;3.33;1.98;;;;;;;;;;5044659;28;20522;-61
2022/03/07 11:42:06;;;;;;;4.65;3.63;;;;;;;;;;5034290;28;20491;-61
2022/03/07 11:44:32;;;;;;;1.13;1.13;;;;;;;;;;5040294;28;20498;-60
2022/03/07 11:47:06;;;;;;;2.90;2.33;;;;;;;;;;5035131;28;20025;-60
2022/03/07 11:49:32;;;;;;;2.60;1.48;;;;;;;;;;5040650;28;20028;-61
2022/03/07 11:51:58;;;;;;;0.60;0.60;;;;;;;;;;5040964;28;20013;-59
2022/03/07 11:54:23;;;;;;;4.95;3.08;;;;;;;;;;5033435;28;20021;-60
2022/03/07 11:56:49;;;;;;;0.05;0.05;;;;;;;;;;5034066;28;20032;-59
2022/03/07 11:59:15;;;;;;;1.30;1.25;;;;;;;;;;5015415;28;20056;-60
2022/03/07 12:01:50;;;;;;;1.88;1.77;;;;;;;;;;5028577;28;20390;-60
2022/03/07 12:04:15;;;;;;;1.25;0.88;;;;;;;;;;5033302;28;20054;-59
2022/03/07 12:06:46;;;;;;;2.28;2.17;;;;;;;;;;5033796;28;20366;-58
2022/03/07 12:09:22;;;;;;;0.90;0.90;;;;;;;;;;5034936;28;20466;-59
2022/03/07 12:11:56;;;;;;;4.10;3.45;;;;;;;;;;5040308;28;20079;-60
2022/03/07 12:14:25;;;;;;;0.85;0.85;;;;;;;;;;5034650;28;20026;-60
2022/03/07 12:16:50;;;;;;;0.98;0.98;;;;;;;;;;5013647;28;20087;-60
2022/03/07 12:19:18;;;;;;;1.20;1.17;;;;;;;;;;5031257;28;20041;-60
2022/03/07 12:21:44;;;;;;;4.18;3.17;;;;;;;;;;5028296;28;20025;-60
2022/03/07 12:24:11;;;;;;;2.28;2.17;;;;;;;;;;5030231;28;20716;-59
2022/03/07 12:27:08;;;;;;;2.17;2.00;;;;;;;;;;5032949;28;20040;-59
2022/03/07 12:29:34;;;;;;;2.30;2.10;;;;;;;;;;4994137;28;20543;-60
2022/03/07 12:32:00;;;;;;;0.80;0.80;;;;;;;;;;5034287;28;20105;-59
2022/03/07 12:34:26;;;;;;;1.98;1.67;;;;;;;;;;5033970;28;20020;-59
2022/03/07 12:37:20;;;;;;;2.70;2.50;;;;;;;;;;5031775;28;20033;-59
2022/03/07 12:39:57;;;;;;;0.88;0.88;;;;;;;;;;5028114;28;20352;-60
2022/03/07 12:42:27;;;;;;;1.63;1.52;;;;;;;;;;5034444;28;20245;-60
2022/03/07 12:44:52;;;;;;;3.28;3.03;;;;;;;;;;5034372;28;20017;-61
2022/03/07 12:47:24;;;;;;;0.70;0.70;;;;;;;;;;5033509;28;20028;-60
2022/03/07 12:49:50;;;;;;;1.45;1.35;;;;;;;;;;5041363;28;20028;-60
2022/03/07 12:52:23;;;;;;;1.17;1.13;;;;;;;;;;5016516;28;20071;-60
2022/03/07 12:54:48;;;;;;;2.45;2.25;;;;;;;;;;5036613;28;20425;-59
2022/03/07 12:57:17;;;;;;;2.65;1.85;;;;;;;;;;5039457;28;20021;-59
2022/03/07 12:59:42;;;;;;;1.88;1.52;;;;;;;;;;5031363;28;20067;-59
2022/03/07 13:02:07;;;;;;;2.92;2.65;;;;;;;;;;5042468;28;20053;-59
2022/03/07 13:04:33;;;;;;;0.35;0.25;;;;;;;;;;5037427;28;20100;-60
2022/03/07 13:07:07;;;;;;;0.70;0.70;;;;;;;;;;5039406;28;20032;-59
2022/03/07 13:09:33;;;;;;;0.70;0.70;;;;;;;;;;5034558;28;20025;-59
2022/03/07 13:12:02;;;;;;;0.65;0.65;;;;;;;;;;5032830;28;20467;-60
2022/03/07 13:14:28;;;;;;;0.20;0.20;;;;;;;;;;5038161;28;20620;-58
2022/03/07 13:16:54;;;;;;;0.47;0.47;;;;;;;;;;5034338;28;20354;-60
2022/03/07 13:19:21;;;;;;;0.73;0.73;;;;;;;;;;5039821;28;20045;-59
2022/03/07 13:21:47;;;;;;;3.85;1.38;;;;;;;;;;5038719;28;20033;-59
2022/03/07 13:24:23;;;;;;;1.08;1.08;;;;;;;;;;5036833;28;20036;-59
2022/03/07 13:26:57;;;;;;;0.52;0.52;;;;;;;;;;5034176;28;20029;-60
2022/03/07 13:29:24;;;;;;;3.60;2.90;;;;;;;;;;5037134;28;20056;-59
2022/03/07 13:31:51;;;;;;;2.33;2.13;;;;;;;;;;5040300;28;20021;-60
2022/03/07 13:34:19;;;;;;;0.90;0.90;;;;;;;;;;5034405;28;20053;-58
2022/03/07 13:36:46;;;;;;;1.25;1.25;;;;;;;;;;5041192;28;20009;-60
2022/03/07 13:39:17;;;;;;;0.00;0.00;;;;;;;;;;5041980;28;20105;-60
2022/03/07 13:41:48;;;;;;;1.75;1.17;;;;;;;;;;5036087;28;20033;-59
2022/03/07 13:44:13;;;;;;;0.90;0.80;;;;;;;;;;5034176;28;20359;-59
2022/03/07 13:46:50;;;;;;;0.00;0.00;;;;;;;;;;5033790;28;20078;-59
2022/03/07 13:49:15;;;;;;;0.73;0.65;;;;;;;;;;5034775;28;20017;-59
2022/03/07 13:51:40;;;;;;;1.08;0.65;;;;;;;;;;5030757;28;20071;-59
2022/03/07 13:54:05;;;;;;;1.75;1.65;;;;;;;;;;5043951;28;20554;-59
2022/03/07 13:56:31;;;;;;;2.25;1.55;;;;;;;;;;5036353;28;20529;-58
2022/03/07 13:58:56;;;;;;;0.50;0.50;;;;;;;;;;5037760;28;20358;-60
2022/03/07 14:01:28;;;;;;;1.40;1.35;;;;;;;;;;5029717;28;20059;-59
2022/03/07 14:03:53;;;;;;;0.00;0.00;;;;;;;;;;5034682;28;20026;-59
2022/03/07 14:06:19;;;;;;;1.10;1.10;;;;;;;;;;5033468;28;20021;-58
2022/03/07 14:08:45;;;;;;;0.20;0.20;;;;;;;;;;5038501;28;20029;-59
2022/03/07 14:11:13;;;;;;;1.42;1.20;;;;;;;;;;5034300;28;20087;-58
2022/03/07 14:13:42;;;;;;;0.57;0.57;;;;;;;;;;5033444;28;20470;-59
2022/03/07 14:16:08;;;;;;;0.63;0.63;;;;;;;;;;5042997;28;20534;-60
2022/03/07 14:18:33;;;;;;;0.55;0.55;;;;;;;;;;5030720;28;21339;-59
2022/03/07 14:20:58;;;;;;;0.95;0.95;;;;;;;;;;5032113;28;20025;-60
2022/03/07 14:23:24;;;;;;;0.10;0.10;;;;;;;;;;5031341;28;20048;-59
2022/03/07 14:25:49;;;;;;;0.43;0.43;;;;;;;;;;5035045;28;20033;-59
2022/03/07 14:28:14;;;;;;;3.47;2.08;;;;;;;;;;5032914;28;20087;-59
2022/03/07 14:30:39;;;;;;;7.82;1.88;;;;;;;;;;5031784;28;20026;-60
2022/03/07 14:33:05;;;;;;;1.67;1.67;;;;;;;;;;5031470;28;20533;-59
2022/03/07 14:35:30;;;;;;;0.45;0.45;;;;;;;;;;5032461;28;20029;-59
2022/03/07 14:37:55;;;;;;;1.45;0.75;;;;;;;;;;5017970;28;20013;-60